<?xml version="1.0" encoding="UTF-8" standalone="no" ?>
<gpx xmlns="http://www.topografix.com/GPX/1/1" xmlns:xsi="http://www.w3.org/2001/XMLSchema-instance" xsi:schemaLocation="http://www.topografix.com/GPX/1/1 http://www.topografix.com/GPX/1/1/gpx.xsd" version="1.1" creator="VisuGPX - https://www.visugpx.com">
  <metadata>
    <name>daluis grotte du chat gorge de mélina 14 km 780 m</name>
    <desc><![CDATA[DALUIS GROTTE DU CHAT, GORGE DE MELINA 14 KM 780 M
IGN 3540 ET HAUTE VALLEE DU VAR
L 323 600 .  L 4878 000]]></desc>
  </metadata>
  <trk>
    <name><![CDATA[--Daluis-- OR-5809072:GROTTE DU CHAT GORGE DE MELINA 14 KM 780 M ]]></name>
    <trkseg>
      <trkpt lat="44.03087" lon="6.80028">
        <ele>908</ele>
        <time>2016-03-16T15:41:40Z</time>
      </trkpt>
      <trkpt lat="44.03105" lon="6.79814">
        <ele>920</ele>
        <time>2016-03-16T15:43:40Z</time>
      </trkpt>
      <trkpt lat="44.03115" lon="6.79629">
        <ele>915</ele>
        <time>2016-03-16T15:45:40Z</time>
      </trkpt>
      <trkpt lat="44.03084" lon="6.79548">
        <ele>895</ele>
        <time>2016-03-16T15:47:40Z</time>
      </trkpt>
      <trkpt lat="44.03112" lon="6.795">
        <ele>921</ele>
        <time>2016-03-16T15:49:40Z</time>
      </trkpt>
      <trkpt lat="44.03037" lon="6.79423">
        <ele>895</ele>
        <time>2016-03-16T15:51:40Z</time>
      </trkpt>
      <trkpt lat="44.02988" lon="6.79312">
        <ele>891</ele>
        <time>2016-03-16T15:53:40Z</time>
      </trkpt>
      <trkpt lat="44.03013" lon="6.79209">
        <ele>905</ele>
        <time>2016-03-16T15:55:40Z</time>
      </trkpt>
      <trkpt lat="44.02991" lon="6.79071">
        <ele>890</ele>
        <time>2016-03-16T15:57:40Z</time>
      </trkpt>
      <trkpt lat="44.03034" lon="6.78827">
        <ele>936</ele>
        <time>2016-03-16T15:59:40Z</time>
      </trkpt>
      <trkpt lat="44.02985" lon="6.78754">
        <ele>924</ele>
        <time>2016-03-16T16:01:40Z</time>
      </trkpt>
      <trkpt lat="44.02991" lon="6.78629">
        <ele>918</ele>
        <time>2016-03-16T16:03:40Z</time>
      </trkpt>
      <trkpt lat="44.03047" lon="6.78599">
        <ele>921</ele>
        <time>2016-03-16T16:05:40Z</time>
      </trkpt>
      <trkpt lat="44.03105" lon="6.78612">
        <ele>941</ele>
        <time>2016-03-16T16:07:40Z</time>
      </trkpt>
      <trkpt lat="44.03108" lon="6.78561">
        <ele>925</ele>
        <time>2016-03-16T16:09:40Z</time>
      </trkpt>
      <trkpt lat="44.03161" lon="6.78518">
        <ele>936</ele>
        <time>2016-03-16T16:11:40Z</time>
      </trkpt>
      <trkpt lat="44.03235" lon="6.78191">
        <ele>932</ele>
        <time>2016-03-16T16:13:40Z</time>
      </trkpt>
      <trkpt lat="44.03179" lon="6.78222">
        <ele>923</ele>
        <time>2016-03-16T16:15:40Z</time>
      </trkpt>
      <trkpt lat="44.03195" lon="6.78161">
        <ele>936</ele>
        <time>2016-03-16T16:17:40Z</time>
      </trkpt>
      <trkpt lat="44.03127" lon="6.78226">
        <ele>927</ele>
        <time>2016-03-16T16:19:40Z</time>
      </trkpt>
      <trkpt lat="44.03161" lon="6.77951">
        <ele>984</ele>
        <time>2016-03-16T16:21:40Z</time>
      </trkpt>
      <trkpt lat="44.03124" lon="6.77934">
        <ele>999</ele>
        <time>2016-03-16T16:23:40Z</time>
      </trkpt>
      <trkpt lat="44.0313" lon="6.77857">
        <ele>1014</ele>
        <time>2016-03-16T16:25:40Z</time>
      </trkpt>
      <trkpt lat="44.03108" lon="6.77827">
        <ele>1024</ele>
        <time>2016-03-16T16:27:40Z</time>
      </trkpt>
      <trkpt lat="44.03093" lon="6.77741">
        <ele>1043</ele>
        <time>2016-03-16T16:29:40Z</time>
      </trkpt>
      <trkpt lat="44.03198" lon="6.77732">
        <ele>1038</ele>
        <time>2016-03-16T16:31:40Z</time>
      </trkpt>
      <trkpt lat="44.0317" lon="6.77724">
        <ele>1044</ele>
        <time>2016-03-16T16:33:40Z</time>
      </trkpt>
      <trkpt lat="44.03198" lon="6.77685">
        <ele>1057</ele>
        <time>2016-03-16T16:35:40Z</time>
      </trkpt>
      <trkpt lat="44.03167" lon="6.77677">
        <ele>1065</ele>
        <time>2016-03-16T16:37:40Z</time>
      </trkpt>
      <trkpt lat="44.03189" lon="6.77638">
        <ele>1071</ele>
        <time>2016-03-16T16:39:40Z</time>
      </trkpt>
      <trkpt lat="44.03186" lon="6.77543">
        <ele>1085</ele>
        <time>2016-03-16T16:41:40Z</time>
      </trkpt>
      <trkpt lat="44.03145" lon="6.77513">
        <ele>1089</ele>
        <time>2016-03-16T16:43:40Z</time>
      </trkpt>
      <trkpt lat="44.03136" lon="6.77561">
        <ele>1086</ele>
        <time>2016-03-16T16:45:40Z</time>
      </trkpt>
      <trkpt lat="44.03108" lon="6.77539">
        <ele>1085</ele>
        <time>2016-03-16T16:47:40Z</time>
      </trkpt>
      <trkpt lat="44.03102" lon="6.77483">
        <ele>1090</ele>
        <time>2016-03-16T16:49:40Z</time>
      </trkpt>
      <trkpt lat="44.03044" lon="6.77513">
        <ele>1091</ele>
        <time>2016-03-16T16:51:40Z</time>
      </trkpt>
      <trkpt lat="44.03059" lon="6.77449">
        <ele>1094</ele>
        <time>2016-03-16T16:53:40Z</time>
      </trkpt>
      <trkpt lat="44.03044" lon="6.77368">
        <ele>1104</ele>
        <time>2016-03-16T16:55:40Z</time>
      </trkpt>
      <trkpt lat="44.03028" lon="6.7729">
        <ele>1120</ele>
        <time>2016-03-16T16:57:40Z</time>
      </trkpt>
      <trkpt lat="44.02963" lon="6.77363">
        <ele>1115</ele>
        <time>2016-03-16T16:59:40Z</time>
      </trkpt>
      <trkpt lat="44.02933" lon="6.77475">
        <ele>1112</ele>
        <time>2016-03-16T17:01:40Z</time>
      </trkpt>
      <trkpt lat="44.02896" lon="6.77586">
        <ele>1107</ele>
        <time>2016-03-16T17:03:40Z</time>
      </trkpt>
      <trkpt lat="44.0284" lon="6.77719">
        <ele>1102</ele>
        <time>2016-03-16T17:05:40Z</time>
      </trkpt>
      <trkpt lat="44.02825" lon="6.77651">
        <ele>1113</ele>
        <time>2016-03-16T17:07:40Z</time>
      </trkpt>
      <trkpt lat="44.0284" lon="6.77616">
        <ele>1114</ele>
        <time>2016-03-16T17:09:40Z</time>
      </trkpt>
      <trkpt lat="44.02818" lon="6.77574">
        <ele>1123</ele>
        <time>2016-03-16T17:11:40Z</time>
      </trkpt>
      <trkpt lat="44.02846" lon="6.77539">
        <ele>1122</ele>
        <time>2016-03-16T17:13:40Z</time>
      </trkpt>
      <trkpt lat="44.02825" lon="6.77483">
        <ele>1135</ele>
        <time>2016-03-16T17:15:40Z</time>
      </trkpt>
      <trkpt lat="44.02837" lon="6.7744">
        <ele>1141</ele>
        <time>2016-03-16T17:17:40Z</time>
      </trkpt>
      <trkpt lat="44.02818" lon="6.7741">
        <ele>1151</ele>
        <time>2016-03-16T17:19:40Z</time>
      </trkpt>
      <trkpt lat="44.02855" lon="6.77368">
        <ele>1147</ele>
        <time>2016-03-16T17:21:40Z</time>
      </trkpt>
      <trkpt lat="44.02868" lon="6.77217">
        <ele>1175</ele>
        <time>2016-03-16T17:23:40Z</time>
      </trkpt>
      <trkpt lat="44.02954" lon="6.77127">
        <ele>1182</ele>
        <time>2016-03-16T17:25:40Z</time>
      </trkpt>
      <trkpt lat="44.02957" lon="6.77041">
        <ele>1206</ele>
        <time>2016-03-16T17:27:40Z</time>
      </trkpt>
      <trkpt lat="44.03099" lon="6.7699">
        <ele>1214</ele>
        <time>2016-03-16T17:29:40Z</time>
      </trkpt>
      <trkpt lat="44.03133" lon="6.76943">
        <ele>1230</ele>
        <time>2016-03-16T17:31:40Z</time>
      </trkpt>
      <trkpt lat="44.0309" lon="6.7693">
        <ele>1239</ele>
        <time>2016-03-16T17:33:40Z</time>
      </trkpt>
      <trkpt lat="44.03152" lon="6.76891">
        <ele>1247</ele>
        <time>2016-03-16T17:35:40Z</time>
      </trkpt>
      <trkpt lat="44.03124" lon="6.76857">
        <ele>1261</ele>
        <time>2016-03-16T17:37:40Z</time>
      </trkpt>
      <trkpt lat="44.03186" lon="6.76827">
        <ele>1271</ele>
        <time>2016-03-16T17:39:40Z</time>
      </trkpt>
      <trkpt lat="44.03263" lon="6.7681">
        <ele>1285</ele>
        <time>2016-03-16T17:41:40Z</time>
      </trkpt>
      <trkpt lat="44.03513" lon="6.76616">
        <ele>1317</ele>
        <time>2016-03-16T17:43:40Z</time>
      </trkpt>
      <trkpt lat="44.03574" lon="6.76586">
        <ele>1323</ele>
        <time>2016-03-16T17:45:40Z</time>
      </trkpt>
      <trkpt lat="44.03587" lon="6.76548">
        <ele>1334</ele>
        <time>2016-03-16T17:47:40Z</time>
      </trkpt>
      <trkpt lat="44.03679" lon="6.76548">
        <ele>1343</ele>
        <time>2016-03-16T17:49:40Z</time>
      </trkpt>
      <trkpt lat="44.0371" lon="6.76492">
        <ele>1363</ele>
        <time>2016-03-16T17:51:40Z</time>
      </trkpt>
      <trkpt lat="44.03766" lon="6.76514">
        <ele>1353</ele>
        <time>2016-03-16T17:53:40Z</time>
      </trkpt>
      <trkpt lat="44.03809" lon="6.76428">
        <ele>1384</ele>
        <time>2016-03-16T17:55:40Z</time>
      </trkpt>
      <trkpt lat="44.04071" lon="6.76299">
        <ele>1421</ele>
        <time>2016-03-16T17:57:40Z</time>
      </trkpt>
      <trkpt lat="44.04194" lon="6.76247">
        <ele>1437</ele>
        <time>2016-03-16T17:59:40Z</time>
      </trkpt>
      <trkpt lat="44.04262" lon="6.76265">
        <ele>1439</ele>
        <time>2016-03-16T18:01:40Z</time>
      </trkpt>
      <trkpt lat="44.04367" lon="6.7617">
        <ele>1466</ele>
        <time>2016-03-16T18:03:40Z</time>
      </trkpt>
      <trkpt lat="44.04395" lon="6.76132">
        <ele>1478</ele>
        <time>2016-03-16T18:05:40Z</time>
      </trkpt>
      <trkpt lat="44.04454" lon="6.76106">
        <ele>1489</ele>
        <time>2016-03-16T18:07:40Z</time>
      </trkpt>
      <trkpt lat="44.04531" lon="6.75951">
        <ele>1535</ele>
        <time>2016-03-16T18:09:40Z</time>
      </trkpt>
      <trkpt lat="44.04629" lon="6.7593">
        <ele>1562</ele>
        <time>2016-03-16T18:11:40Z</time>
      </trkpt>
      <trkpt lat="44.0471" lon="6.75968">
        <ele>1568</ele>
        <time>2016-03-16T18:13:40Z</time>
      </trkpt>
      <trkpt lat="44.04876" lon="6.75934">
        <ele>1589</ele>
        <time>2016-03-16T18:15:40Z</time>
      </trkpt>
      <trkpt lat="44.04944" lon="6.75891">
        <ele>1600</ele>
        <time>2016-03-16T18:17:40Z</time>
      </trkpt>
      <trkpt lat="44.05317" lon="6.75999">
        <ele>1627</ele>
        <time>2016-03-16T18:19:40Z</time>
      </trkpt>
      <trkpt lat="44.05484" lon="6.76153">
        <ele>1601</ele>
        <time>2016-03-16T18:21:40Z</time>
      </trkpt>
      <trkpt lat="44.05437" lon="6.76226">
        <ele>1570</ele>
        <time>2016-03-16T18:23:40Z</time>
      </trkpt>
      <trkpt lat="44.05533" lon="6.76226">
        <ele>1567</ele>
        <time>2016-03-16T18:25:40Z</time>
      </trkpt>
      <trkpt lat="44.05493" lon="6.76269">
        <ele>1551</ele>
        <time>2016-03-16T18:27:40Z</time>
      </trkpt>
      <trkpt lat="44.05542" lon="6.76286">
        <ele>1563</ele>
        <time>2016-03-16T18:29:40Z</time>
      </trkpt>
      <trkpt lat="44.0545" lon="6.76441">
        <ele>1537</ele>
        <time>2016-03-16T18:31:40Z</time>
      </trkpt>
      <trkpt lat="44.05453" lon="6.76565">
        <ele>1569</ele>
        <time>2016-03-16T18:33:40Z</time>
      </trkpt>
      <trkpt lat="44.05373" lon="6.76582">
        <ele>1549</ele>
        <time>2016-03-16T18:35:40Z</time>
      </trkpt>
      <trkpt lat="44.05317" lon="6.76659">
        <ele>1567</ele>
        <time>2016-03-16T18:37:40Z</time>
      </trkpt>
      <trkpt lat="44.05262" lon="6.76655">
        <ele>1560</ele>
        <time>2016-03-16T18:39:40Z</time>
      </trkpt>
      <trkpt lat="44.05234" lon="6.76728">
        <ele>1562</ele>
        <time>2016-03-16T18:41:40Z</time>
      </trkpt>
      <trkpt lat="44.05219" lon="6.76968">
        <ele>1575</ele>
        <time>2016-03-16T18:43:40Z</time>
      </trkpt>
      <trkpt lat="44.05154" lon="6.77024">
        <ele>1563</ele>
        <time>2016-03-16T18:45:40Z</time>
      </trkpt>
      <trkpt lat="44.05135" lon="6.77136">
        <ele>1571</ele>
        <time>2016-03-16T18:47:40Z</time>
      </trkpt>
      <trkpt lat="44.05021" lon="6.77398">
        <ele>1566</ele>
        <time>2016-03-16T18:49:40Z</time>
      </trkpt>
      <trkpt lat="44.04919" lon="6.77509">
        <ele>1549</ele>
        <time>2016-03-16T18:51:40Z</time>
      </trkpt>
      <trkpt lat="44.04839" lon="6.77689">
        <ele>1538</ele>
        <time>2016-03-16T18:53:40Z</time>
      </trkpt>
      <trkpt lat="44.04818" lon="6.7781">
        <ele>1541</ele>
        <time>2016-03-16T18:55:40Z</time>
      </trkpt>
      <trkpt lat="44.04568" lon="6.78191">
        <ele>1507</ele>
        <time>2016-03-16T18:57:40Z</time>
      </trkpt>
      <trkpt lat="44.04611" lon="6.78389">
        <ele>1510</ele>
        <time>2016-03-16T18:59:40Z</time>
      </trkpt>
      <trkpt lat="44.04608" lon="6.78518">
        <ele>1492</ele>
        <time>2016-03-16T19:01:40Z</time>
      </trkpt>
      <trkpt lat="44.04651" lon="6.78586">
        <ele>1495</ele>
        <time>2016-03-16T19:03:40Z</time>
      </trkpt>
      <trkpt lat="44.04626" lon="6.78732">
        <ele>1495</ele>
        <time>2016-03-16T19:05:40Z</time>
      </trkpt>
      <trkpt lat="44.04518" lon="6.78797">
        <ele>1463</ele>
        <time>2016-03-16T19:07:40Z</time>
      </trkpt>
      <trkpt lat="44.04392" lon="6.78775">
        <ele>1428</ele>
        <time>2016-03-16T19:09:40Z</time>
      </trkpt>
      <trkpt lat="44.04339" lon="6.78878">
        <ele>1433</ele>
        <time>2016-03-16T19:11:40Z</time>
      </trkpt>
      <trkpt lat="44.04256" lon="6.78947">
        <ele>1428</ele>
        <time>2016-03-16T19:13:40Z</time>
      </trkpt>
      <trkpt lat="44.04046" lon="6.79067">
        <ele>1394</ele>
        <time>2016-03-16T19:15:40Z</time>
      </trkpt>
      <trkpt lat="44.03892" lon="6.79101">
        <ele>1342</ele>
        <time>2016-03-16T19:17:40Z</time>
      </trkpt>
      <trkpt lat="44.03867" lon="6.79161">
        <ele>1339</ele>
        <time>2016-03-16T19:19:40Z</time>
      </trkpt>
      <trkpt lat="44.03775" lon="6.79187">
        <ele>1313</ele>
        <time>2016-03-16T19:21:40Z</time>
      </trkpt>
      <trkpt lat="44.0371" lon="6.79191">
        <ele>1295</ele>
        <time>2016-03-16T19:23:40Z</time>
      </trkpt>
      <trkpt lat="44.03724" lon="6.79232">
        <ele>1296</ele>
        <time>2016-03-16T19:25:40Z</time>
      </trkpt>
      <trkpt lat="44.03702" lon="6.79249">
        <ele>1289</ele>
        <time>2016-03-16T19:27:40Z</time>
      </trkpt>
      <trkpt lat="44.0373" lon="6.7929">
        <ele>1283</ele>
        <time>2016-03-16T19:29:40Z</time>
      </trkpt>
      <trkpt lat="44.03687" lon="6.79273">
        <ele>1278</ele>
        <time>2016-03-16T19:31:40Z</time>
      </trkpt>
      <trkpt lat="44.03732" lon="6.7932">
        <ele>1275</ele>
        <time>2016-03-16T19:33:40Z</time>
      </trkpt>
      <trkpt lat="44.03688" lon="6.79305">
        <ele>1268</ele>
        <time>2016-03-16T19:35:40Z</time>
      </trkpt>
      <trkpt lat="44.03724" lon="6.79357">
        <ele>1260</ele>
        <time>2016-03-16T19:37:40Z</time>
      </trkpt>
      <trkpt lat="44.0367" lon="6.7935">
        <ele>1250</ele>
        <time>2016-03-16T19:39:40Z</time>
      </trkpt>
      <trkpt lat="44.03692" lon="6.79372">
        <ele>1249</ele>
        <time>2016-03-16T19:41:40Z</time>
      </trkpt>
      <trkpt lat="44.0373" lon="6.79393">
        <ele>1249</ele>
        <time>2016-03-16T19:43:40Z</time>
      </trkpt>
      <trkpt lat="44.03673" lon="6.79393">
        <ele>1239</ele>
        <time>2016-03-16T19:45:40Z</time>
      </trkpt>
      <trkpt lat="44.03725" lon="6.7944">
        <ele>1233</ele>
        <time>2016-03-16T19:47:40Z</time>
      </trkpt>
      <trkpt lat="44.03692" lon="6.79447">
        <ele>1228</ele>
        <time>2016-03-16T19:49:40Z</time>
      </trkpt>
      <trkpt lat="44.0373" lon="6.79496">
        <ele>1218</ele>
        <time>2016-03-16T19:51:40Z</time>
      </trkpt>
      <trkpt lat="44.03698" lon="6.795">
        <ele>1215</ele>
        <time>2016-03-16T19:53:40Z</time>
      </trkpt>
      <trkpt lat="44.03634" lon="6.79599">
        <ele>1168</ele>
        <time>2016-03-16T19:55:40Z</time>
      </trkpt>
      <trkpt lat="44.03621" lon="6.79638">
        <ele>1154</ele>
        <time>2016-03-16T19:57:40Z</time>
      </trkpt>
      <trkpt lat="44.03579" lon="6.79646">
        <ele>1150</ele>
        <time>2016-03-16T19:59:40Z</time>
      </trkpt>
      <trkpt lat="44.0351" lon="6.79597">
        <ele>1141</ele>
        <time>2016-03-16T20:01:40Z</time>
      </trkpt>
      <trkpt lat="44.03539" lon="6.79659">
        <ele>1132</ele>
        <time>2016-03-16T20:03:40Z</time>
      </trkpt>
      <trkpt lat="44.03519" lon="6.79651">
        <ele>1127</ele>
        <time>2016-03-16T20:05:40Z</time>
      </trkpt>
      <trkpt lat="44.03528" lon="6.79681">
        <ele>1121</ele>
        <time>2016-03-16T20:07:40Z</time>
      </trkpt>
      <trkpt lat="44.03502" lon="6.79666">
        <ele>1117</ele>
        <time>2016-03-16T20:09:40Z</time>
      </trkpt>
      <trkpt lat="44.0351" lon="6.797">
        <ele>1109</ele>
        <time>2016-03-16T20:11:40Z</time>
      </trkpt>
      <trkpt lat="44.03476" lon="6.79685">
        <ele>1100</ele>
        <time>2016-03-16T20:13:40Z</time>
      </trkpt>
      <trkpt lat="44.03477" lon="6.79732">
        <ele>1087</ele>
        <time>2016-03-16T20:15:40Z</time>
      </trkpt>
      <trkpt lat="44.0344" lon="6.79736">
        <ele>1072</ele>
        <time>2016-03-16T20:17:40Z</time>
      </trkpt>
      <trkpt lat="44.03409" lon="6.79629">
        <ele>1081</ele>
        <time>2016-03-16T20:19:40Z</time>
      </trkpt>
      <trkpt lat="44.03368" lon="6.79612">
        <ele>1062</ele>
        <time>2016-03-16T20:21:40Z</time>
      </trkpt>
      <trkpt lat="44.03351" lon="6.7956">
        <ele>1061</ele>
        <time>2016-03-16T20:23:40Z</time>
      </trkpt>
      <trkpt lat="44.03326" lon="6.7961">
        <ele>1039</ele>
        <time>2016-03-16T20:25:40Z</time>
      </trkpt>
      <trkpt lat="44.03357" lon="6.79805">
        <ele>1027</ele>
        <time>2016-03-16T20:27:40Z</time>
      </trkpt>
      <trkpt lat="44.03318" lon="6.799">
        <ele>1002</ele>
        <time>2016-03-16T20:29:40Z</time>
      </trkpt>
      <trkpt lat="44.03258" lon="6.80075">
        <ele>963</ele>
        <time>2016-03-16T20:31:40Z</time>
      </trkpt>
      <trkpt lat="44.03206" lon="6.80026">
        <ele>955</ele>
        <time>2016-03-16T20:33:40Z</time>
      </trkpt>
      <trkpt lat="44.03252" lon="6.80153">
        <ele>948</ele>
        <time>2016-03-16T20:35:40Z</time>
      </trkpt>
      <trkpt lat="44.03169" lon="6.80069">
        <ele>933</ele>
        <time>2016-03-16T20:37:40Z</time>
      </trkpt>
      <trkpt lat="44.0313" lon="6.80005">
        <ele>930</ele>
        <time>2016-03-16T20:39:40Z</time>
      </trkpt>
      <trkpt lat="44.03082" lon="6.79983">
        <ele>913</ele>
        <time>2016-03-16T20:41:40Z</time>
      </trkpt>
    </trkseg>
  </trk>
</gpx>